Time;durP1;ratioP1;P1;durP2;ratioP2;P2;SDS_P1;SDS_P2;PMS_P1;PMS_P2;Temp;Humidity;BMP_temperature;BMP_pressure;BME280_temperature;BME280_humidity;BME280_pressure;Samples;Min_cycle;Max_cycle;Signal;HPM_P1;HPM_P2
2022/01/31 00:01:08;;;;;;;9.17;3.67;;;;;;;3.62;100.00;96676.25;5120503;27;105156;-54
2022/01/31 00:03:36;;;;;;;8.80;2.93;;;;;;;3.58;100.00;96661.88;5118127;27;104958;-52
2022/01/31 00:06:05;;;;;;;10.03;3.80;;;;;;;3.75;100.00;96648.16;5115816;27;105104;-53
2022/01/31 00:08:53;;;;;;;8.20;3.57;;;;;;;3.70;100.00;96644.47;5135443;27;101948;-50
2022/01/31 00:11:27;;;;;;;7.73;3.13;;;;;;;3.65;100.00;96642.47;5136850;27;102530;-54
2022/01/31 00:14:02;;;;;;;6.70;3.47;;;;;;;3.67;100.00;96639.66;5134828;27;104558;-52
2022/01/31 00:16:32;;;;;;;8.13;4.03;;;;;;;3.58;100.00;96631.16;5137003;27;101850;-51
2022/01/31 00:19:24;;;;;;;8.87;3.77;;;;;;;3.51;100.00;96614.56;5135535;27;105731;-53
2022/01/31 00:21:52;;;;;;;10.37;4.20;;;;;;;3.59;100.00;96601.19;5138006;27;105704;-54
2022/01/31 00:24:19;;;;;;;7.67;3.20;;;;;;;3.58;100.00;96593.50;5136582;27;102366;-53
2022/01/31 00:26:46;;;;;;;7.70;3.47;;;;;;;3.50;100.00;96586.63;5134944;27;105262;-52
2022/01/31 00:29:20;;;;;;;7.27;3.27;;;;;;;3.51;100.00;96576.94;5135272;27;101885;-51
2022/01/31 00:31:49;;;;;;;6.57;3.30;;;;;;;3.56;100.00;96570.03;5135246;27;104844;-54
2022/01/31 00:34:16;;;;;;;5.47;3.27;;;;;;;3.63;100.00;96560.34;5134606;27;105775;-51
2022/01/31 00:36:44;;;;;;;9.57;3.77;;;;;;;3.65;100.00;96547.81;5134889;27;102068;-50
2022/01/31 00:39:11;;;;;;;7.73;3.50;;;;;;;3.65;100.00;96539.13;5135155;27;103952;-51
2022/01/31 00:41:48;;;;;;;7.60;3.47;;;;;;;3.64;100.00;96530.41;5134700;27;105119;-53
2022/01/31 00:44:18;;;;;;;4.90;2.70;;;;;;;3.68;100.00;96530.81;5138548;27;101840;-49
2022/01/31 00:46:52;;;;;;;7.87;3.30;;;;;;;3.59;100.00;96524.97;5134537;27;105840;-51
2022/01/31 00:49:37;;;;;;;5.93;3.07;;;;;;;3.60;100.00;96515.25;5135080;27;101763;-52
2022/01/31 00:52:06;;;;;;;7.50;3.27;;;;;;;3.54;100.00;96518.69;5134918;27;105276;-54
2022/01/31 00:54:33;;;;;;;8.97;3.00;;;;;;;3.51;100.00;96519.91;5134203;27;103851;-54
2022/01/31 00:57:01;;;;;;;7.30;2.90;;;;;;;3.45;100.00;96520.69;5134727;27;101939;-51
2022/01/31 00:59:29;;;;;;;6.80;2.60;;;;;;;3.55;100.00;96509.81;5134769;27;105454;-50
2022/01/31 01:01:58;;;;;;;8.37;3.13;;;;;;;3.45;100.00;96514.66;5131516;27;105007;-51
2022/01/31 01:04:26;;;;;;;7.67;3.20;;;;;;;3.41;100.00;96511.63;5134700;27;101847;-54
2022/01/31 01:06:53;;;;;;;7.40;3.23;;;;;;;3.50;100.00;96506.97;5136704;27;105709;-53
2022/01/31 01:09:26;;;;;;;9.90;3.50;;;;;;;3.43;100.00;96511.41;5136202;27;101776;-50
2022/01/31 01:11:53;;;;;;;7.87;3.27;;;;;;;3.49;100.00;96502.72;5134485;27;104884;-53
2022/01/31 01:14:21;;;;;;;7.57;3.50;;;;;;;3.42;100.00;96500.09;5134243;27;105165;-53
2022/01/31 01:16:49;;;;;;;8.33;4.07;;;;;;;3.46;100.00;96489.97;5134649;27;102115;-53
2022/01/31 01:19:20;;;;;;;8.00;3.23;;;;;;;3.31;100.00;96476.22;5134529;27;105360;-54
2022/01/31 01:21:48;;;;;;;6.63;3.27;;;;;;;3.19;100.00;96477.88;5133653;27;104168;-54
2022/01/31 01:24:16;;;;;;;9.73;3.50;;;;;;;3.29;100.00;96468.53;5134305;27;101870;-54
2022/01/31 01:26:43;;;;;;;8.80;3.40;;;;;;;3.28;100.00;96445.91;5134512;27;105707;-53
2022/01/31 01:29:19;;;;;;;7.23;3.50;;;;;;;3.20;100.00;96461.06;5137235;27;104770;-54
2022/01/31 01:31:47;;;;;;;7.80;3.60;;;;;;;3.09;100.00;96457.25;5134424;27;104957;-53
2022/01/31 01:34:16;;;;;;;5.63;2.90;;;;;;;3.14;100.00;96441.69;5133493;27;104990;-51
2022/01/31 01:36:46;;;;;;;8.33;3.10;;;;;;;3.13;100.00;96449.78;5134211;27;101825;-50
2022/01/31 01:39:50;;;;;;;4.80;2.97;;;;;;;3.03;100.00;96439.69;5134353;27;105317;-51
2022/01/31 01:42:17;;;;;;;7.40;3.10;;;;;;;2.99;100.00;96438.47;5133614;27;103870;-54
2022/01/31 01:44:46;;;;;;;6.67;3.00;;;;;;;2.94;100.00;96432.19;5133876;27;101926;-52
2022/01/31 01:47:16;;;;;;;9.37;3.33;;;;;;;3.06;100.00;96422.72;5134030;27;105202;-51
2022/01/31 01:49:44;;;;;;;5.33;2.70;;;;;;;3.05;100.00;96416.63;5133359;27;104207;-52
2022/01/31 01:52:14;;;;;;;8.10;4.30;;;;;;;2.93;100.00;96402.50;5137534;27;101861;-54
2022/01/31 01:54:41;;;;;;;7.03;3.00;;;;;;;2.95;100.00;96399.69;5134554;27;103155;-53
2022/01/31 01:57:08;;;;;;;4.77;2.60;;;;;;;2.85;100.00;96396.63;5133868;27;101920;-54
2022/01/31 01:59:37;;;;;;;5.50;2.87;;;;;;;2.93;100.00;96404.31;5133778;27;105245;-51
2022/01/31 02:02:24;;;;;;;11.70;2.77;;;;;;;2.80;100.00;96394.59;5132875;27;105720;-54
2022/01/31 02:04:51;;;;;;;5.57;2.57;;;;;;;2.84;100.00;96393.19;5133677;27;101870;-52
2022/01/31 02:07:32;;;;;;;8.70;3.27;;;;;;;2.72;100.00;96391.38;5133652;27;104942;-53
2022/01/31 02:10:04;;;;;;;9.70;2.90;;;;;;;2.59;100.00;96380.88;5133068;27;105205;-54
2022/01/31 02:12:39;;;;;;;5.77;2.73;;;;;;;2.36;100.00;96375.19;5133901;27;101836;-52
2022/01/31 02:15:07;;;;;;;5.67;2.77;;;;;;;2.36;100.00;96369.97;5136485;27;105078;-50
2022/01/31 02:17:57;;;;;;;4.70;2.27;;;;;;;2.28;100.00;96343.91;5093530;27;102055;-52
2022/01/31 02:20:24;;;;;;;5.63;2.60;;;;;;;2.24;100.00;96340.88;5133592;27;105352;-53
2022/01/31 02:22:53;;;;;;;6.07;2.60;;;;;;;2.11;100.00;96338.22;5132866;27;105059;-50
2022/01/31 02:25:32;;;;;;;5.80;2.60;;;;;;;2.15;100.00;96321.09;5133446;27;102103;-51
2022/01/31 02:28:45;;;;;;;7.30;2.47;;;;;;;2.08;100.00;96319.47;5133305;27;103975;-52
2022/01/31 02:31:13;;;;;;;5.27;2.40;;;;;;;2.01;100.00;96295.84;5132780;27;105028;-50
2022/01/31 02:33:41;;;;;;;7.43;2.60;;;;;;;2.06;100.00;96284.75;5133194;27;101978;-54
2022/01/31 02:36:08;;;;;;;10.00;2.57;;;;;;;1.98;100.00;96263.97;5136266;27;105142;-51
2022/01/31 02:38:48;;;;;;;6.67;2.80;;;;;;;1.93;100.00;96274.25;5133276;27;101986;-55
2022/01/31 02:41:15;;;;;;;6.47;2.57;;;;;;;1.91;100.00;96271.03;5133259;27;104888;-53
2022/01/31 02:43:48;;;;;;;6.73;2.70;;;;;;;1.87;100.00;96261.94;5132288;27;105659;-51
2022/01/31 02:46:18;;;;;;;6.67;2.30;;;;;;;1.75;100.00;96256.47;5133471;27;101792;-53
2022/01/31 02:48:54;;;;;;;6.77;2.50;;;;;;;1.64;100.00;96243.16;5133238;27;103590;-50
2022/01/31 02:51:23;;;;;;;6.50;2.53;;;;;;;1.74;100.00;96248.81;5132248;27;105526;-53
2022/01/31 02:53:53;;;;;;;6.93;2.40;;;;;;;1.76;100.00;96236.31;5132928;27;101902;-52
2022/01/31 02:56:20;;;;;;;5.67;2.50;;;;;;;1.80;100.00;96242.78;5133038;27;105191;-52
2022/01/31 02:58:48;;;;;;;8.07;2.60;;;;;;;1.67;100.00;96240.13;5135891;27;105014;-52
2022/01/31 03:01:16;;;;;;;4.53;2.20;;;;;;;1.72;100.00;96251.63;5132280;27;103883;-51
2022/01/31 03:03:44;;;;;;;5.57;2.67;;;;;;;1.76;100.00;96242.34;5132280;27;104046;-53
2022/01/31 03:06:12;;;;;;;4.30;2.90;;;;;;;1.78;100.00;96242.16;5134105;27;101943;-52
2022/01/31 03:08:56;;;;;;;7.10;2.90;;;;;;;1.83;100.00;96221.41;5133842;27;101709;-54
2022/01/31 03:11:34;;;;;;;7.27;2.93;;;;;;;1.89;100.00;96203.06;5132232;27;103804;-52
2022/01/31 03:14:06;;;;;;;8.20;2.70;;;;;;;1.82;100.00;96204.88;5132730;27;102180;-53
2022/01/31 03:16:40;;;;;;;5.07;2.70;;;;;;;1.89;100.00;96203.06;5132862;27;104906;-52
2022/01/31 03:19:38;;;;;;;5.20;2.40;;;;;;;1.71;100.00;96202.03;5132031;27;105447;-53
2022/01/31 03:22:05;;;;;;;8.67;2.90;;;;;;;1.73;100.00;96200.84;5136095;27;101803;-55
2022/01/31 03:24:33;;;;;;;4.43;2.70;;;;;;;1.76;100.00;96189.94;5131827;27;105799;-53
2022/01/31 03:27:01;;;;;;;9.77;2.93;;;;;;;1.75;100.00;96198.81;5132598;27;101866;-55
2022/01/31 03:29:51;;;;;;;6.20;2.97;;;;;;;1.76;100.00;96202.25;5132399;27;104939;-52
2022/01/31 03:32:20;;;;;;;6.10;2.40;;;;;;;1.78;100.00;96182.69;5131671;27;105734;-52
2022/01/31 03:34:47;;;;;;;6.13;2.67;;;;;;;1.92;100.00;96173.00;5132530;27;102040;-54
2022/01/31 03:37:15;;;;;;;4.40;2.47;;;;;;;1.82;100.00;96165.56;5132488;27;105196;-54
2022/01/31 03:40:01;;;;;;;6.50;2.40;;;;;;;1.95;100.00;96147.19;5131610;27;105542;-50
2022/01/31 03:42:51;;;;;;;5.50;2.40;;;;;;;1.87;100.00;96143.97;5132240;27;101876;-52
2022/01/31 03:45:19;;;;;;;5.30;2.30;;;;;;;1.96;100.00;96140.13;5134764;27;105659;-54
2022/01/31 03:47:50;;;;;;;3.50;2.40;;;;;;;2.03;100.00;96126.00;5132220;27;101929;-52
2022/01/31 03:50:19;;;;;;;5.27;2.57;;;;;;;2.08;100.00;96131.44;5132382;27;104763;-51
2022/01/31 03:52:52;;;;;;;4.33;2.30;;;;;;;1.97;100.00;96123.41;5131705;27;104997;-55
2022/01/31 03:55:22;;;;;;;3.90;2.63;;;;;;;1.93;100.00;96122.19;5132155;27;101858;-54
2022/01/31 03:57:57;;;;;;;8.10;2.77;;;;;;;1.91;100.00;96130.25;5132046;27;104817;-55
2022/01/31 04:00:30;;;;;;;6.43;2.73;;;;;;;1.85;100.00;96122.38;5131557;27;105152;-53
2022/01/31 04:02:57;;;;;;;5.27;2.60;;;;;;;1.80;100.00;96130.06;5133130;27;101987;-52
2022/01/31 04:05:27;;;;;;;5.60;2.80;;;;;;;1.88;100.00;96127.22;5133360;27;102459;-52
2022/01/31 04:07:56;;;;;;;5.10;2.80;;;;;;;1.84;100.00;96129.44;5136378;27;102522;-50
2022/01/31 04:10:28;;;;;;;3.80;2.40;;;;;;;1.83;100.00;96130.47;5133088;27;102550;-53
2022/01/31 04:13:28;;;;;;;4.27;2.43;;;;;;;1.78;100.00;96129.44;5129621;27;102436;-54
2022/01/31 04:15:58;;;;;;;7.83;2.90;;;;;;;1.84;100.00;96087.50;5133829;27;101650;-52
2022/01/31 04:19:05;;;;;;;5.37;2.50;;;;;;;1.82;100.00;96088.72;5133529;27;101892;-50
2022/01/31 04:21:34;;;;;;;3.90;2.50;;;;;;;1.82;100.00;96091.34;5132925;27;102309;-52
2022/01/31 04:24:04;;;;;;;7.03;2.40;;;;;;;1.84;100.00;96081.44;5133260;27;101754;-53
2022/01/31 04:26:44;;;;;;;4.90;2.53;;;;;;;1.88;100.00;96080.03;5133244;27;102402;-53
2022/01/31 04:29:19;;;;;;;5.03;3.10;;;;;;;1.88;100.00;96072.19;5132887;27;102284;-54
2022/01/31 04:31:51;;;;;;;4.83;2.27;;;;;;;1.87;100.00;96065.31;5133702;27;101754;-53
2022/01/31 04:34:21;;;;;;;3.20;2.20;;;;;;;1.85;100.00;96069.94;5129249;27;102375;-52
2022/01/31 04:36:51;;;;;;;5.57;2.50;;;;;;;1.91;100.00;96050.81;5132937;27;101700;-52
2022/01/31 04:39:24;;;;;;;3.30;2.40;;;;;;;1.91;100.00;96029.84;5129787;27;102191;-52
2022/01/31 04:41:56;;;;;;;4.90;3.10;;;;;;;1.88;100.00;96019.75;5134448;27;102315;-52
2022/01/31 04:44:25;;;;;;;4.80;2.67;;;;;;;1.89;100.00;95987.28;5133493;27;101741;-53
2022/01/31 04:46:55;;;;;;;3.90;2.83;;;;;;;1.86;100.00;95992.94;5136512;27;102206;-55
2022/01/31 04:49:33;;;;;;;4.33;3.17;;;;;;;1.84;100.00;96000.19;5136190;27;102462;-56
2022/01/31 04:52:04;;;;;;;6.03;3.00;;;;;;;1.91;100.00;96008.84;5140213;27;101663;-56
2022/01/31 04:54:34;;;;;;;4.10;2.63;;;;;;;1.84;100.00;95976.59;5132658;27;102363;-55
2022/01/31 04:57:06;;;;;;;5.73;2.43;;;;;;;1.85;100.00;95972.94;5136079;27;101890;-53
2022/01/31 04:59:41;;;;;;;3.20;2.40;;;;;;;1.83;100.00;95952.22;5133336;27;102121;-55
2022/01/31 05:02:11;;;;;;;3.87;2.60;;;;;;;1.86;100.00;95961.47;5135549;27;102340;-54
2022/01/31 05:04:40;;;;;;;5.53;2.57;;;;;;;1.83;100.00;95949.59;5136450;27;101967;-53
2022/01/31 05:07:10;;;;;;;3.80;2.67;;;;;;;1.81;100.00;95951.59;5136035;27;102272;-54
2022/01/31 05:09:43;;;;;;;6.03;2.87;;;;;;;1.79;100.00;95937.09;5135745;27;102440;-54
2022/01/31 05:13:08;;;;;;;4.60;2.60;;;;;;;1.80;100.00;95929.03;5136384;27;101633;-52
2022/01/31 05:15:39;;;;;;;6.90;2.77;;;;;;;1.77;100.00;95911.09;5135735;27;102320;-55
2022/01/31 05:18:10;;;;;;;4.67;2.57;;;;;;;1.87;100.00;95894.94;5136611;27;101716;-54
2022/01/31 05:20:40;;;;;;;6.23;2.70;;;;;;;1.81;100.00;95898.38;5132926;27;102115;-55
2022/01/31 05:23:10;;;;;;;5.40;2.60;;;;;;;1.80;100.00;95876.59;5132140;27;102383;-53
2022/01/31 05:25:40;;;;;;;7.20;3.20;;;;;;;1.76;100.00;95869.38;5135873;27;101857;-55
2022/01/31 05:28:24;;;;;;;4.33;2.70;;;;;;;1.86;100.00;95854.00;5135778;27;102182;-55
2022/01/31 05:30:55;;;;;;;7.63;2.80;;;;;;;1.94;100.00;95851.13;5132177;27;102315;-56
2022/01/31 05:33:25;;;;;;;8.33;3.00;;;;;;;1.83;100.00;95843.94;5132827;27;101661;-56
2022/01/31 05:35:55;;;;;;;5.57;2.73;;;;;;;1.79;100.00;95863.69;5135850;27;102187;-55
2022/01/31 05:38:25;;;;;;;8.47;3.00;;;;;;;1.79;100.00;95872.38;5139191;27;102415;-53
2022/01/31 05:40:55;;;;;;;5.07;2.80;;;;;;;1.80;100.00;95876.59;5135644;27;102266;-54
2022/01/31 05:43:25;;;;;;;4.80;2.80;;;;;;;1.81;100.00;95872.19;5134894;27;102302;-55
2022/01/31 05:45:55;;;;;;;4.77;2.80;;;;;;;1.76;100.00;95857.06;5135395;27;101777;-55
2022/01/31 05:48:31;;;;;;;5.33;3.17;;;;;;;1.84;100.00;95843.72;5135664;27;102143;-55
2022/01/31 05:51:02;;;;;;;7.97;3.30;;;;;;;1.78;100.00;95846.38;5131606;27;102390;-54
2022/01/31 05:53:32;;;;;;;5.67;2.93;;;;;;;1.73;100.00;95854.06;5131180;27;101594;-54
2022/01/31 05:56:04;;;;;;;5.00;3.30;;;;;;;1.74;100.00;95845.16;5135216;27;102299;-54
2022/01/31 05:58:41;;;;;;;5.03;3.10;;;;;;;1.74;100.00;95845.16;5131698;27;102311;-55
2022/01/31 06:01:13;;;;;;;7.37;3.77;;;;;;;1.69;100.00;95847.63;5136157;27;101932;-56
2022/01/31 06:03:40;;;;;;;8.57;3.40;;;;;;;1.70;100.00;95849.25;5133280;27;105681;-55
2022/01/31 06:06:07;;;;;;;4.17;3.03;;;;;;;1.74;100.00;95848.59;5133508;27;101900;-56
2022/01/31 06:08:34;;;;;;;7.80;3.30;;;;;;;1.65;100.00;95849.06;5133768;27;104896;-55
2022/01/31 06:11:01;;;;;;;3.77;2.70;;;;;;;1.71;100.00;95854.25;5132913;27;105790;-56
2022/01/31 06:13:32;;;;;;;3.77;2.57;;;;;;;1.77;100.00;95856.06;5133633;27;102353;-57
2022/01/31 06:15:58;;;;;;;5.00;2.77;;;;;;;1.92;100.00;95859.19;5133616;27;104935;-55
2022/01/31 06:18:31;;;;;;;8.57;3.20;;;;;;;1.94;100.00;95864.25;5132934;27;105502;-56
2022/01/31 06:20:58;;;;;;;8.50;2.93;;;;;;;1.95;100.00;95860.59;5133484;27;101803;-57
2022/01/31 06:23:25;;;;;;;6.17;2.70;;;;;;;1.99;100.00;95849.50;5136331;27;103645;-56
2022/01/31 06:25:53;;;;;;;7.87;3.20;;;;;;;2.04;100.00;95856.72;5133370;27;101881;-56
2022/01/31 06:28:23;;;;;;;6.50;3.20;;;;;;;2.08;100.00;95857.91;5133321;27;104934;-56
2022/01/31 06:30:58;;;;;;;6.67;3.90;;;;;;;2.03;100.00;95852.50;5132706;27;105484;-55
2022/01/31 06:33:25;;;;;;;6.50;2.83;;;;;;;2.08;100.00;95852.69;5133139;27;101833;-55
2022/01/31 06:35:54;;;;;;;6.13;2.30;;;;;;;2.11;100.00;95853.06;5133254;27;104838;-56
2022/01/31 06:38:47;;;;;;;6.90;3.07;;;;;;;2.13;100.00;95851.00;5132703;27;105281;-56
2022/01/31 06:41:24;;;;;;;5.67;2.80;;;;;;;2.09;100.00;95844.56;5134599;27;102189;-54
2022/01/31 06:43:53;;;;;;;8.07;2.70;;;;;;;2.11;100.00;95847.00;5133103;27;105356;-55
2022/01/31 06:46:20;;;;;;;6.07;3.20;;;;;;;2.28;100.00;95843.66;5135550;27;101848;-56
2022/01/31 06:48:47;;;;;;;5.07;3.00;;;;;;;2.15;100.00;95837.69;5133143;27;105072;-55
2022/01/31 06:51:16;;;;;;;4.47;2.53;;;;;;;2.12;100.00;95844.16;5132297;27;105398;-55
2022/01/31 06:53:47;;;;;;;6.07;3.27;;;;;;;2.26;100.00;95845.69;5134279;27;102141;-54
2022/01/31 06:56:15;;;;;;;9.13;4.63;;;;;;;2.14;100.00;95847.38;5133267;27;105239;-57
2022/01/31 06:58:57;;;;;;;6.00;3.70;;;;;;;2.15;100.00;95837.69;5133877;27;102924;-56
2022/01/31 07:01:25;;;;;;;8.47;3.70;;;;;;;2.16;100.00;95836.66;5132595;27;101987;-54
2022/01/31 07:03:54;;;;;;;7.07;3.50;;;;;;;2.18;100.00;95834.66;5132508;27;104486;-56
2022/01/31 07:06:23;;;;;;;10.70;3.90;;;;;;;2.22;100.00;95828.78;5135364;27;105494;-56
2022/01/31 07:08:51;;;;;;;5.03;3.33;;;;;;;2.30;100.00;95832.97;5132731;27;105084;-56
2022/01/31 07:11:37;;;;;;;7.20;3.50;;;;;;;2.47;100.00;95820.91;5133665;27;102607;-56
2022/01/31 07:14:06;;;;;;;7.67;3.60;;;;;;;2.58;100.00;95835.97;5132684;27;101984;-57
2022/01/31 07:16:34;;;;;;;6.87;3.80;;;;;;;2.63;100.00;95825.63;5132777;27;105242;-55
2022/01/31 07:19:21;;;;;;;7.40;3.67;;;;;;;2.71;100.00;95830.59;5131833;27;105350;-56
2022/01/31 07:21:51;;;;;;;4.83;3.60;;;;;;;2.79;100.00;95819.84;5132499;27;101906;-56
2022/01/31 07:24:22;;;;;;;4.70;3.80;;;;;;;2.87;100.00;95809.06;5132683;27;104902;-56
2022/01/31 07:26:50;;;;;;;8.87;3.90;;;;;;;2.87;100.00;95809.88;5131781;27;105741;-56
2022/01/31 07:29:20;;;;;;;6.00;4.33;;;;;;;3.07;100.00;95802.56;5137365;27;101808;-56
2022/01/31 07:31:47;;;;;;;7.40;4.10;;;;;;;2.99;100.00;95788.94;5131740;27;105715;-56
2022/01/31 07:34:15;;;;;;;5.87;4.33;;;;;;;3.00;100.00;95791.34;5132475;27;101868;-55
2022/01/31 07:36:42;;;;;;;8.83;4.30;;;;;;;3.05;100.00;95790.69;5132240;27;105288;-57
2022/01/31 07:39:22;;;;;;;5.43;4.17;;;;;;;3.10;100.00;95785.56;5131611;27;104983;-57
2022/01/31 07:41:58;;;;;;;8.40;4.57;;;;;;;3.10;100.00;95782.94;5132266;27;101885;-56
2022/01/31 07:44:24;;;;;;;6.03;4.33;;;;;;;3.18;100.00;95772.16;5132242;27;105582;-57
2022/01/31 07:46:52;;;;;;;5.23;4.20;;;;;;;3.17;100.00;95760.06;5131407;27;105400;-57
2022/01/31 07:49:21;;;;;;;6.87;4.17;;;;;;;3.20;100.00;95760.41;5132128;27;101946;-57
2022/01/31 07:51:48;;;;;;;5.93;4.47;;;;;;;3.22;100.00;95745.22;5134857;27;105467;-56
2022/01/31 07:54:16;;;;;;;5.67;4.30;;;;;;;3.31;100.00;95746.53;5132054;27;101865;-57
2022/01/31 07:56:45;;;;;;;6.80;4.17;;;;;;;3.33;100.00;95712.16;5132089;27;105509;-57
2022/01/31 07:59:52;;;;;;;5.77;3.67;;;;;;;3.48;100.00;95721.25;5131435;27;105671;-56
2022/01/31 08:02:20;;;;;;;10.23;3.80;;;;;;;3.61;100.00;95717.66;5131860;27;101858;-56
2022/01/31 08:04:47;;;;;;;8.67;3.17;;;;;;;3.68;100.00;95707.84;5132034;27;105279;-57
2022/01/31 08:07:14;;;;;;;5.20;3.07;;;;;;;3.79;100.00;95707.88;5131064;27;104063;-56
2022/01/31 08:10:10;;;;;;;4.97;3.10;;;;;;;3.96;100.00;95694.88;5131947;27;101830;-60
2022/01/31 08:12:46;;;;;;;8.87;3.23;;;;;;;4.07;100.00;95699.34;5132966;27;102337;-57
2022/01/31 08:15:21;;;;;;;4.77;2.80;;;;;;;4.12;100.00;95670.53;5135755;27;102473;-59
2022/01/31 08:17:52;;;;;;;4.30;2.93;;;;;;;4.17;100.00;95660.13;5096589;27;105062;-58
2022/01/31 08:20:19;;;;;;;5.97;2.70;;;;;;;4.21;100.00;95643.66;5096283;27;105855;-58
2022/01/31 08:22:45;;;;;;;3.23;2.30;;;;;;;4.33;100.00;95648.94;5097224;27;101836;-59
2022/01/31 08:25:14;;;;;;;4.47;2.47;;;;;;;4.41;100.00;95651.19;5097115;27;104831;-59
2022/01/31 08:27:53;;;;;;;3.10;2.23;;;;;;;4.50;100.00;95641.94;5096262;27;105262;-59
2022/01/31 08:30:25;;;;;;;3.33;2.30;;;;;;;4.57;100.00;95637.34;5097053;27;101830;-59
2022/01/31 08:33:00;;;;;;;3.30;2.40;;;;;;;4.65;100.00;95623.84;5096959;27;105644;-59
2022/01/31 08:38:16;;;;;;;6.17;2.27;;;;;;;4.79;100.00;95614.63;5100382;27;101883;-58
2022/01/31 08:40:43;;;;;;;3.80;2.20;;;;;;;4.83;100.00;95600.78;5095877;27;103680;-59
2022/01/31 08:43:17;;;;;;;2.47;1.73;;;;;;;4.91;100.00;95597.75;5116576;27;102028;-59
2022/01/31 08:45:45;;;;;;;3.50;1.70;;;;;;;5.04;100.00;95599.31;5136575;27;102814;-59
2022/01/31 08:48:25;;;;;;;4.00;1.60;;;;;;;5.06;100.00;95594.59;5135871;27;102690;-59
2022/01/31 08:50:53;;;;;;;2.77;1.50;;;;;;;5.10;100.00;95575.47;5136165;27;101989;-59
2022/01/31 08:53:20;;;;;;;2.70;1.97;;;;;;;5.18;100.00;95576.94;5117299;27;106439;-59
2022/01/31 08:55:50;;;;;;;3.37;1.70;;;;;;;5.29;100.00;95541.81;5134450;27;102812;-59
2022/01/31 08:59:07;;;;;;;4.87;1.50;;;;;;;5.36;100.00;95537.19;5138726;27;102012;-59
2022/01/31 09:01:36;;;;;;;2.43;1.50;;;;;;;5.45;100.00;95546.31;5134932;27;103097;-59
2022/01/31 09:04:04;;;;;;;2.40;1.50;;;;;;;5.47;100.00;95538.94;5116692;27;102020;-59
2022/01/31 09:06:33;;;;;;;2.43;1.70;;;;;;;5.50;100.00;95538.44;5096304;27;105113;-59
2022/01/31 09:09:12;;;;;;;1.70;1.40;;;;;;;5.60;100.00;95523.59;5114440;27;103158;-59
2022/01/31 09:12:09;;;;;;;2.10;1.77;;;;;;;5.69;100.00;95553.81;5115409;27;101949;-59
2022/01/31 09:14:36;;;;;;;2.03;1.40;;;;;;;5.80;100.00;95534.50;5125502;27;103768;-59
2022/01/31 09:17:05;;;;;;;3.20;1.50;;;;;;;5.77;100.00;95537.59;5129181;27;106377;-59
2022/01/31 09:19:39;;;;;;;2.20;1.53;;;;;;;5.78;100.00;95531.25;5135790;27;101949;-59
2022/01/31 09:22:07;;;;;;;1.40;1.30;;;;;;;5.79;100.00;95550.53;5138915;27;102328;-59
2022/01/31 09:24:37;;;;;;;2.00;1.40;;;;;;;5.35;100.00;95573.28;5116985;27;101965;-59
2022/01/31 09:27:05;;;;;;;2.30;1.67;;;;;;;5.21;100.00;95556.19;5123425;27;105128;-59
2022/01/31 09:29:46;;;;;;;3.90;1.60;;;;;;;5.04;100.00;95565.88;5116338;27;105464;-59
2022/01/31 09:32:15;;;;;;;2.03;1.87;;;;;;;4.92;100.00;95596.72;5123445;27;103175;-59
2022/01/31 09:34:42;;;;;;;2.43;2.10;;;;;;;4.78;100.00;95586.69;5119147;27;102321;-59
2022/01/31 09:37:09;;;;;;;3.50;1.60;;;;;;;4.53;100.00;95597.50;5103630;27;105914;-59
2022/01/31 09:39:42;;;;;;;3.17;2.00;;;;;;;4.38;100.00;95580.63;5101257;27;101904;-59
2022/01/31 09:42:14;;;;;;;1.77;1.67;;;;;;;4.30;100.00;95581.75;5130250;27;105247;-59
2022/01/31 09:44:49;;;;;;;2.20;1.87;;;;;;;4.12;100.00;95591.63;5138375;27;103065;-59
2022/01/31 09:47:23;;;;;;;3.47;1.50;;;;;;;4.04;100.00;95605.13;5135530;27;102494;-59
2022/01/31 09:49:50;;;;;;;2.20;2.03;;;;;;;3.98;100.00;95587.63;5134976;27;102674;-59
2022/01/31 09:52:18;;;;;;;2.57;2.03;;;;;;;3.88;100.00;95582.13;5116353;27;101998;-59
2022/01/31 09:54:48;;;;;;;2.70;2.00;;;;;;;3.84;100.00;95578.34;5116313;27;105109;-59
2022/01/31 09:57:15;;;;;;;2.10;1.90;;;;;;;3.84;100.00;95570.47;5115667;27;105385;-59
2022/01/31 09:59:57;;;;;;;2.00;1.87;;;;;;;3.88;100.00;95566.34;5116526;27;102027;-59
2022/01/31 10:02:26;;;;;;;2.10;1.70;;;;;;;3.90;100.00;95577.44;5134765;27;102432;-59
2022/01/31 10:04:53;;;;;;;2.57;1.90;;;;;;;3.91;100.00;95586.91;5113822;27;105358;-59
2022/01/31 10:07:21;;;;;;;1.73;1.50;;;;;;;3.90;100.00;95567.72;5138705;27;103393;-59
2022/01/31 10:09:49;;;;;;;3.33;1.70;;;;;;;3.93;100.00;95571.72;5113601;27;105262;-59
2022/01/31 10:18:04;;;;;;;2.50;1.97;;;;;;;4.14;100.00;95555.38;5134494;27;102735;-59
2022/01/31 10:20:34;;;;;;;1.97;1.73;;;;;;;4.22;100.00;95540.03;5135083;27;102048;-59
2022/01/31 10:23:07;;;;;;;1.57;1.43;;;;;;;4.30;100.00;95544.09;5134934;27;102572;-59
2022/01/31 10:25:35;;;;;;;2.93;2.07;;;;;;;4.33;100.00;95556.81;5134351;27;102731;-59
2022/01/31 10:28:25;;;;;;;2.37;1.63;;;;;;;4.38;100.00;95549.84;5133073;27;101933;-59
2022/01/31 10:30:52;;;;;;;2.03;1.60;;;;;;;4.42;100.00;95556.22;5134804;27;103856;-59
2022/01/31 10:33:25;;;;;;;2.17;1.83;;;;;;;4.41;100.00;95564.34;5115738;27;101823;-59
2022/01/31 10:35:52;;;;;;;4.10;2.43;;;;;;;4.41;100.00;95548.56;5115725;27;103807;-59
2022/01/31 10:38:31;;;;;;;2.73;2.30;;;;;;;4.39;100.00;95545.34;5133857;27;102846;-59
2022/01/31 10:52:33;;;;;;;1.67;1.57;;;;;;;4.40;100.00;95526.72;5127489;27;105317;-59
2022/01/31 10:55:14;;;;;;;1.80;1.70;;;;;;;4.41;100.00;95532.75;5135961;27;103986;-59
2022/01/31 10:58:14;;;;;;;2.13;1.40;;;;;;;4.40;100.00;95536.44;5133085;27;105646;-59
2022/01/31 11:00:42;;;;;;;1.57;1.43;;;;;;;4.42;100.00;95529.91;5132000;27;105829;-58
2022/01/31 11:03:32;;;;;;;1.33;1.23;;;;;;;4.37;100.00;95524.53;5134488;27;101757;-59
2022/01/31 11:06:06;;;;;;;1.53;1.43;;;;;;;4.38;100.00;95510.38;5133007;27;103907;-59
2022/01/31 11:08:37;;;;;;;1.70;1.30;;;;;;;4.39;100.00;95514.59;5130582;27;105251;-59
2022/01/31 11:11:05;;;;;;;1.20;1.20;;;;;;;4.48;100.00;95521.06;5134114;27;101739;-59
2022/01/31 11:13:34;;;;;;;1.17;1.17;;;;;;;4.58;100.00;95533.66;5133963;27;102358;-59
2022/01/31 11:16:01;;;;;;;1.30;1.20;;;;;;;4.61;100.00;95507.66;5136742;27;102608;-59
2022/01/31 11:18:31;;;;;;;1.00;1.00;;;;;;;4.56;100.00;95635.75;5133165;27;102588;-59
2022/01/31 11:21:02;;;;;;;1.23;1.13;;;;;;;4.46;100.00;95524.97;5113473;27;106617;-59
2022/01/31 11:23:33;;;;;;;0.90;0.90;;;;;;;4.28;100.00;95543.56;5115020;27;102091;-59
2022/01/31 11:26:02;;;;;;;1.00;0.87;;;;;;;3.74;100.00;95549.19;5114940;27;103961;-59
2022/01/31 11:28:32;;;;;;;1.50;0.87;;;;;;;3.68;100.00;95529.06;5113851;27;105505;-59
2022/01/31 11:31:01;;;;;;;0.90;0.90;;;;;;;3.65;100.00;95521.66;5115032;27;101772;-59
2022/01/31 11:33:29;;;;;;;0.87;0.87;;;;;;;3.67;100.00;95535.38;5114779;27;105448;-59
2022/01/31 11:35:57;;;;;;;0.80;0.80;;;;;;;3.78;100.00;95537.97;5114090;27;105287;-59
2022/01/31 11:38:35;;;;;;;0.83;0.70;;;;;;;3.81;100.00;95541.97;5121461;27;101899;-58
2022/01/31 11:41:03;;;;;;;0.90;0.90;;;;;;;3.83;100.00;95550.47;5109549;27;104107;-58
2022/01/31 11:43:32;;;;;;;1.00;1.00;;;;;;;3.84;100.00;95560.75;5101554;27;102091;-59
2022/01/31 11:46:00;;;;;;;1.37;1.27;;;;;;;3.87;100.00;95559.50;5114055;27;105181;-59
2022/01/31 11:49:12;;;;;;;1.20;1.10;;;;;;;3.96;100.00;95573.88;5113903;27;105112;-59
2022/01/31 11:51:50;;;;;;;1.70;1.33;;;;;;;4.03;100.00;95553.53;5114454;27;101941;-59
2022/01/31 11:54:24;;;;;;;1.10;1.10;;;;;;;3.97;100.00;95567.59;5114498;27;105258;-59
2022/01/31 11:56:54;;;;;;;1.40;1.30;;;;;;;3.87;100.00;95552.38;5132877;27;102770;-58
2022/01/31 11:59:24;;;;;;;1.27;1.20;;;;;;;3.79;100.00;95549.31;5114558;27;101959;-59
2022/01/31 12:01:52;;;;;;;1.10;1.10;;;;;;;3.75;100.00;95558.66;5119212;27;102455;-59
2022/01/31 12:04:23;;;;;;;1.97;1.87;;;;;;;3.70;100.00;95561.19;5112279;27;101745;-59
2022/01/31 12:06:50;;;;;;;1.20;1.10;;;;;;;3.75;100.00;95532.38;5112473;27;102383;-59
2022/01/31 12:09:27;;;;;;;1.90;1.70;;;;;;;3.83;100.00;95529.44;5092749;27;105666;-58